sensor_id;sensor_type;location;lat;lon;timestamp;P1;durP1;ratioP1;P2;durP2;ratioP2
6259;SDS011;3163;51.516;4.000;2022-09-29T00:00:09;1.33;;;0.60;;
6259;SDS011;3163;51.516;4.000;2022-09-29T00:02:35;0.77;;;0.77;;
6259;SDS011;3163;51.516;4.000;2022-09-29T00:05:01;0.80;;;0.80;;
6259;SDS011;3163;51.516;4.000;2022-09-29T00:07:28;0.73;;;0.70;;
6259;SDS011;3163;51.516;4.000;2022-09-29T00:09:56;0.93;;;0.93;;
6259;SDS011;3163;51.516;4.000;2022-09-29T00:12:22;0.90;;;0.90;;
6259;SDS011;3163;51.516;4.000;2022-09-29T00:14:48;0.90;;;0.90;;
6259;SDS011;3163;51.516;4.000;2022-09-29T00:17:14;0.70;;;0.70;;
6259;SDS011;3163;51.516;4.000;2022-09-29T00:19:40;0.87;;;0.87;;
6259;SDS011;3163;51.516;4.000;2022-09-29T00:22:06;0.90;;;0.90;;
6259;SDS011;3163;51.516;4.000;2022-09-29T00:24:32;0.70;;;0.70;;
6259;SDS011;3163;51.516;4.000;2022-09-29T00:26:59;1.00;;;0.90;;
6259;SDS011;3163;51.516;4.000;2022-09-29T00:29:25;1.02;;;0.85;;
6259;SDS011;3163;51.516;4.000;2022-09-29T00:31:51;0.87;;;0.80;;
6259;SDS011;3163;51.516;4.000;2022-09-29T00:34:17;0.60;;;0.60;;
6259;SDS011;3163;51.516;4.000;2022-09-29T00:36:43;0.70;;;0.70;;
6259;SDS011;3163;51.516;4.000;2022-09-29T00:39:09;0.80;;;0.80;;
6259;SDS011;3163;51.516;4.000;2022-09-29T00:41:36;0.80;;;0.80;;
6259;SDS011;3163;51.516;4.000;2022-09-29T00:44:49;0.47;;;0.47;;
6259;SDS011;3163;51.516;4.000;2022-09-29T00:46:55;0.70;;;0.70;;
6259;SDS011;3163;51.516;4.000;2022-09-29T00:49:28;0.80;;;0.67;;
6259;SDS011;3163;51.516;4.000;2022-09-29T00:52:01;0.63;;;0.63;;
6259;SDS011;3163;51.516;4.000;2022-09-29T00:54:31;0.80;;;0.80;;
6259;SDS011;3163;51.516;4.000;2022-09-29T00:57:01;0.97;;;0.87;;
6259;SDS011;3163;51.516;4.000;2022-09-29T00:59:47;0.70;;;0.70;;
6259;SDS011;3163;51.516;4.000;2022-09-29T01:02:14;1.00;;;0.97;;
6259;SDS011;3163;51.516;4.000;2022-09-29T01:04:41;0.93;;;0.93;;
6259;SDS011;3163;51.516;4.000;2022-09-29T01:07:07;0.67;;;0.67;;
6259;SDS011;3163;51.516;4.000;2022-09-29T01:09:35;0.97;;;0.97;;
6259;SDS011;3163;51.516;4.000;2022-09-29T01:12:02;0.90;;;0.80;;
6259;SDS011;3163;51.516;4.000;2022-09-29T01:14:29;0.70;;;0.70;;
6259;SDS011;3163;51.516;4.000;2022-09-29T01:16:56;0.80;;;0.80;;
6259;SDS011;3163;51.516;4.000;2022-09-29T01:19:25;0.53;;;0.53;;
6259;SDS011;3163;51.516;4.000;2022-09-29T01:22:09;1.10;;;1.10;;
6259;SDS011;3163;51.516;4.000;2022-09-29T01:27:14;1.08;;;0.98;;
6259;SDS011;3163;51.516;4.000;2022-09-29T01:40:34;0.77;;;0.77;;
6259;SDS011;3163;51.516;4.000;2022-09-29T01:43:05;0.80;;;0.80;;
6259;SDS011;3163;51.516;4.000;2022-09-29T01:45:34;0.80;;;0.80;;
6259;SDS011;3163;51.516;4.000;2022-09-29T01:48:12;1.00;;;1.00;;
6259;SDS011;3163;51.516;4.000;2022-09-29T01:50:42;0.80;;;0.80;;
6259;SDS011;3163;51.516;4.000;2022-09-29T01:53:11;0.80;;;0.80;;
6259;SDS011;3163;51.516;4.000;2022-09-29T01:55:43;0.70;;;0.70;;
6259;SDS011;3163;51.516;4.000;2022-09-29T01:58:15;0.80;;;0.80;;
6259;SDS011;3163;51.516;4.000;2022-09-29T02:00:44;0.70;;;0.70;;
6259;SDS011;3163;51.516;4.000;2022-09-29T02:05:44;0.93;;;0.93;;
6259;SDS011;3163;51.516;4.000;2022-09-29T02:10:54;0.73;;;0.73;;
6259;SDS011;3163;51.516;4.000;2022-09-29T02:13:22;2.83;;;0.77;;
6259;SDS011;3163;51.516;4.000;2022-09-29T02:15:49;0.70;;;0.70;;
6259;SDS011;3163;51.516;4.000;2022-09-29T02:18:19;0.87;;;0.87;;
6259;SDS011;3163;51.516;4.000;2022-09-29T02:20:47;0.70;;;0.70;;
6259;SDS011;3163;51.516;4.000;2022-09-29T02:23:13;0.90;;;0.90;;
6259;SDS011;3163;51.516;4.000;2022-09-29T02:25:39;1.00;;;1.00;;
6259;SDS011;3163;51.516;4.000;2022-09-29T02:28:05;1.20;;;0.77;;
6259;SDS011;3163;51.516;4.000;2022-09-29T02:30:32;0.80;;;0.80;;
6259;SDS011;3163;51.516;4.000;2022-09-29T02:32:58;0.80;;;0.80;;
6259;SDS011;3163;51.516;4.000;2022-09-29T02:35:25;0.80;;;0.80;;
6259;SDS011;3163;51.516;4.000;2022-09-29T02:38:09;0.80;;;0.80;;
6259;SDS011;3163;51.516;4.000;2022-09-29T02:40:41;0.73;;;0.73;;
6259;SDS011;3163;51.516;4.000;2022-09-29T02:43:12;0.63;;;0.63;;
6259;SDS011;3163;51.516;4.000;2022-09-29T02:50:57;0.60;;;0.60;;
6259;SDS011;3163;51.516;4.000;2022-09-29T02:56:14;0.70;;;0.70;;
6259;SDS011;3163;51.516;4.000;2022-09-29T02:59:06;0.67;;;0.67;;
6259;SDS011;3163;51.516;4.000;2022-09-29T03:01:34;0.60;;;0.60;;
6259;SDS011;3163;51.516;4.000;2022-09-29T03:04:05;0.80;;;0.80;;
6259;SDS011;3163;51.516;4.000;2022-09-29T03:06:32;0.80;;;0.77;;
6259;SDS011;3163;51.516;4.000;2022-09-29T03:08:58;0.70;;;0.70;;
6259;SDS011;3163;51.516;4.000;2022-09-29T03:11:24;0.63;;;0.63;;
6259;SDS011;3163;51.516;4.000;2022-09-29T03:13:50;0.63;;;0.63;;
6259;SDS011;3163;51.516;4.000;2022-09-29T03:16:16;0.63;;;0.63;;
6259;SDS011;3163;51.516;4.000;2022-09-29T03:18:42;0.90;;;0.90;;
6259;SDS011;3163;51.516;4.000;2022-09-29T03:21:08;1.30;;;0.90;;
6259;SDS011;3163;51.516;4.000;2022-09-29T03:23:34;1.20;;;0.70;;
6259;SDS011;3163;51.516;4.000;2022-09-29T03:26:00;0.70;;;0.70;;
6259;SDS011;3163;51.516;4.000;2022-09-29T03:28:26;0.50;;;0.50;;
6259;SDS011;3163;51.516;4.000;2022-09-29T03:30:52;0.70;;;0.70;;
6259;SDS011;3163;51.516;4.000;2022-09-29T03:33:19;0.60;;;0.60;;
6259;SDS011;3163;51.516;4.000;2022-09-29T03:35:45;1.70;;;0.80;;
6259;SDS011;3163;51.516;4.000;2022-09-29T03:38:11;0.60;;;0.60;;
6259;SDS011;3163;51.516;4.000;2022-09-29T03:40:37;0.83;;;0.83;;
6259;SDS011;3163;51.516;4.000;2022-09-29T03:43:03;0.70;;;0.70;;
6259;SDS011;3163;51.516;4.000;2022-09-29T03:45:29;0.70;;;0.70;;
6259;SDS011;3163;51.516;4.000;2022-09-29T03:47:55;0.70;;;0.70;;
6259;SDS011;3163;51.516;4.000;2022-09-29T03:50:21;1.90;;;0.80;;
6259;SDS011;3163;51.516;4.000;2022-09-29T03:52:47;0.80;;;0.80;;
6259;SDS011;3163;51.516;4.000;2022-09-29T03:55:13;1.17;;;0.67;;
6259;SDS011;3163;51.516;4.000;2022-09-29T03:57:39;0.80;;;0.80;;
6259;SDS011;3163;51.516;4.000;2022-09-29T04:00:05;0.60;;;0.60;;
6259;SDS011;3163;51.516;4.000;2022-09-29T04:02:31;0.80;;;0.80;;
6259;SDS011;3163;51.516;4.000;2022-09-29T04:04:59;0.60;;;0.60;;
6259;SDS011;3163;51.516;4.000;2022-09-29T04:07:25;0.70;;;0.70;;
6259;SDS011;3163;51.516;4.000;2022-09-29T04:09:51;0.70;;;0.70;;
6259;SDS011;3163;51.516;4.000;2022-09-29T04:12:17;0.70;;;0.70;;
6259;SDS011;3163;51.516;4.000;2022-09-29T04:14:43;0.70;;;0.70;;
6259;SDS011;3163;51.516;4.000;2022-09-29T04:17:09;0.80;;;0.80;;
6259;SDS011;3163;51.516;4.000;2022-09-29T04:19:35;0.60;;;0.60;;
6259;SDS011;3163;51.516;4.000;2022-09-29T04:22:00;0.60;;;0.60;;
6259;SDS011;3163;51.516;4.000;2022-09-29T04:24:26;0.67;;;0.60;;
6259;SDS011;3163;51.516;4.000;2022-09-29T04:26:52;0.70;;;0.57;;
6259;SDS011;3163;51.516;4.000;2022-09-29T04:29:18;0.50;;;0.50;;
6259;SDS011;3163;51.516;4.000;2022-09-29T04:31:44;0.67;;;0.67;;
6259;SDS011;3163;51.516;4.000;2022-09-29T04:34:10;1.13;;;0.73;;
6259;SDS011;3163;51.516;4.000;2022-09-29T04:36:36;0.77;;;0.77;;
6259;SDS011;3163;51.516;4.000;2022-09-29T04:39:02;0.73;;;0.73;;
6259;SDS011;3163;51.516;4.000;2022-09-29T04:41:29;0.73;;;0.70;;
6259;SDS011;3163;51.516;4.000;2022-09-29T04:43:58;0.70;;;0.70;;
6259;SDS011;3163;51.516;4.000;2022-09-29T04:46:24;0.80;;;0.80;;
6259;SDS011;3163;51.516;4.000;2022-09-29T04:48:50;1.03;;;0.80;;
6259;SDS011;3163;51.516;4.000;2022-09-29T04:51:16;0.70;;;0.70;;
6259;SDS011;3163;51.516;4.000;2022-09-29T04:53:42;0.50;;;0.50;;
6259;SDS011;3163;51.516;4.000;2022-09-29T04:56:08;0.70;;;0.70;;
6259;SDS011;3163;51.516;4.000;2022-09-29T04:58:34;0.50;;;0.50;;
6259;SDS011;3163;51.516;4.000;2022-09-29T05:01:04;0.87;;;0.87;;
6259;SDS011;3163;51.516;4.000;2022-09-29T05:03:30;0.77;;;0.67;;
6259;SDS011;3163;51.516;4.000;2022-09-29T05:05:56;0.60;;;0.60;;
6259;SDS011;3163;51.516;4.000;2022-09-29T05:08:22;0.60;;;0.60;;
6259;SDS011;3163;51.516;4.000;2022-09-29T05:10:48;0.70;;;0.60;;
6259;SDS011;3163;51.516;4.000;2022-09-29T05:13:15;0.60;;;0.60;;
6259;SDS011;3163;51.516;4.000;2022-09-29T05:15:41;0.60;;;0.60;;
6259;SDS011;3163;51.516;4.000;2022-09-29T05:18:07;0.63;;;0.63;;
6259;SDS011;3163;51.516;4.000;2022-09-29T05:20:33;0.63;;;0.63;;
6259;SDS011;3163;51.516;4.000;2022-09-29T05:22:59;0.60;;;0.50;;
6259;SDS011;3163;51.516;4.000;2022-09-29T05:25:25;0.50;;;0.50;;
6259;SDS011;3163;51.516;4.000;2022-09-29T05:27:52;0.90;;;0.50;;
6259;SDS011;3163;51.516;4.000;2022-09-29T05:30:18;0.53;;;0.53;;
6259;SDS011;3163;51.516;4.000;2022-09-29T05:32:44;0.60;;;0.60;;
6259;SDS011;3163;51.516;4.000;2022-09-29T05:35:10;0.70;;;0.70;;
6259;SDS011;3163;51.516;4.000;2022-09-29T05:37:36;0.87;;;0.77;;
6259;SDS011;3163;51.516;4.000;2022-09-29T05:40:02;0.60;;;0.60;;
6259;SDS011;3163;51.516;4.000;2022-09-29T05:42:28;0.60;;;0.60;;
6259;SDS011;3163;51.516;4.000;2022-09-29T05:44:55;1.47;;;0.70;;
6259;SDS011;3163;51.516;4.000;2022-09-29T05:47:21;0.53;;;0.40;;
6259;SDS011;3163;51.516;4.000;2022-09-29T05:49:48;0.80;;;0.80;;
6259;SDS011;3163;51.516;4.000;2022-09-29T05:52:14;0.60;;;0.60;;
6259;SDS011;3163;51.516;4.000;2022-09-29T05:54:40;0.73;;;0.73;;
6259;SDS011;3163;51.516;4.000;2022-09-29T05:57:06;1.23;;;0.70;;
6259;SDS011;3163;51.516;4.000;2022-09-29T05:59:32;0.70;;;0.70;;
6259;SDS011;3163;51.516;4.000;2022-09-29T06:01:58;0.60;;;0.60;;
6259;SDS011;3163;51.516;4.000;2022-09-29T06:04:24;1.10;;;1.10;;
6259;SDS011;3163;51.516;4.000;2022-09-29T06:06:50;1.00;;;1.00;;
6259;SDS011;3163;51.516;4.000;2022-09-29T06:09:19;1.10;;;0.70;;
6259;SDS011;3163;51.516;4.000;2022-09-29T06:11:45;0.90;;;0.73;;
6259;SDS011;3163;51.516;4.000;2022-09-29T06:14:11;0.50;;;0.50;;
6259;SDS011;3163;51.516;4.000;2022-09-29T06:16:37;0.88;;;0.88;;
6259;SDS011;3163;51.516;4.000;2022-09-29T06:19:03;0.57;;;0.57;;
6259;SDS011;3163;51.516;4.000;2022-09-29T06:21:29;0.87;;;0.87;;
6259;SDS011;3163;51.516;4.000;2022-09-29T06:23:56;0.90;;;0.90;;
6259;SDS011;3163;51.516;4.000;2022-09-29T06:26:22;0.80;;;0.80;;
6259;SDS011;3163;51.516;4.000;2022-09-29T06:28:49;0.57;;;0.57;;
6259;SDS011;3163;51.516;4.000;2022-09-29T06:31:16;0.50;;;0.50;;
6259;SDS011;3163;51.516;4.000;2022-09-29T06:33:43;0.73;;;0.73;;
6259;SDS011;3163;51.516;4.000;2022-09-29T06:36:19;0.73;;;0.50;;
6259;SDS011;3163;51.516;4.000;2022-09-29T06:39:05;0.73;;;0.70;;
6259;SDS011;3163;51.516;4.000;2022-09-29T06:41:31;0.80;;;0.80;;
6259;SDS011;3163;51.516;4.000;2022-09-29T06:43:59;0.67;;;0.67;;
6259;SDS011;3163;51.516;4.000;2022-09-29T06:46:25;0.77;;;0.77;;
6259;SDS011;3163;51.516;4.000;2022-09-29T06:48:54;1.03;;;0.57;;
6259;SDS011;3163;51.516;4.000;2022-09-29T06:51:20;0.60;;;0.60;;
6259;SDS011;3163;51.516;4.000;2022-09-29T06:53:47;0.60;;;0.60;;
6259;SDS011;3163;51.516;4.000;2022-09-29T06:56:13;1.53;;;0.60;;
6259;SDS011;3163;51.516;4.000;2022-09-29T06:58:39;1.90;;;0.63;;
6259;SDS011;3163;51.516;4.000;2022-09-29T07:01:05;0.43;;;0.43;;
6259;SDS011;3163;51.516;4.000;2022-09-29T07:03:32;0.80;;;0.80;;
6259;SDS011;3163;51.516;4.000;2022-09-29T07:06:03;0.63;;;0.63;;
6259;SDS011;3163;51.516;4.000;2022-09-29T07:08:29;1.27;;;0.77;;
6259;SDS011;3163;51.516;4.000;2022-09-29T07:10:55;0.80;;;0.80;;
6259;SDS011;3163;51.516;4.000;2022-09-29T07:13:21;0.97;;;0.67;;
6259;SDS011;3163;51.516;4.000;2022-09-29T07:15:47;0.60;;;0.60;;
6259;SDS011;3163;51.516;4.000;2022-09-29T07:18:13;0.67;;;0.67;;
6259;SDS011;3163;51.516;4.000;2022-09-29T07:20:39;1.40;;;0.60;;
6259;SDS011;3163;51.516;4.000;2022-09-29T07:23:06;0.50;;;0.50;;
6259;SDS011;3163;51.516;4.000;2022-09-29T07:25:33;1.23;;;0.60;;
6259;SDS011;3163;51.516;4.000;2022-09-29T07:27:59;1.53;;;0.60;;
6259;SDS011;3163;51.516;4.000;2022-09-29T07:30:26;0.40;;;0.40;;
6259;SDS011;3163;51.516;4.000;2022-09-29T07:32:55;0.57;;;0.57;;
6259;SDS011;3163;51.516;4.000;2022-09-29T07:35:21;1.57;;;0.70;;
6259;SDS011;3163;51.516;4.000;2022-09-29T07:37:53;0.70;;;0.50;;
6259;SDS011;3163;51.516;4.000;2022-09-29T07:40:20;0.53;;;0.53;;
6259;SDS011;3163;51.516;4.000;2022-09-29T07:42:46;0.37;;;0.37;;
6259;SDS011;3163;51.516;4.000;2022-09-29T07:45:13;2.97;;;0.80;;
6259;SDS011;3163;51.516;4.000;2022-09-29T07:47:39;0.60;;;0.60;;
6259;SDS011;3163;51.516;4.000;2022-09-29T07:50:05;1.90;;;0.83;;
6259;SDS011;3163;51.516;4.000;2022-09-29T07:52:31;0.73;;;0.53;;
6259;SDS011;3163;51.516;4.000;2022-09-29T07:54:57;0.50;;;0.50;;
6259;SDS011;3163;51.516;4.000;2022-09-29T07:57:23;1.23;;;0.70;;
6259;SDS011;3163;51.516;4.000;2022-09-29T07:59:49;0.40;;;0.40;;
6259;SDS011;3163;51.516;4.000;2022-09-29T08:02:15;0.93;;;0.57;;
6259;SDS011;3163;51.516;4.000;2022-09-29T08:04:41;0.77;;;0.50;;
6259;SDS011;3163;51.516;4.000;2022-09-29T08:07:10;0.60;;;0.50;;
6259;SDS011;3163;51.516;4.000;2022-09-29T08:09:36;5.80;;;0.87;;
6259;SDS011;3163;51.516;4.000;2022-09-29T08:12:02;0.77;;;0.77;;
6259;SDS011;3163;51.516;4.000;2022-09-29T08:14:28;1.43;;;0.80;;
6259;SDS011;3163;51.516;4.000;2022-09-29T08:16:54;0.90;;;0.60;;
6259;SDS011;3163;51.516;4.000;2022-09-29T08:19:20;5.33;;;0.90;;
6259;SDS011;3163;51.516;4.000;2022-09-29T08:21:46;1.73;;;0.80;;
6259;SDS011;3163;51.516;4.000;2022-09-29T08:24:14;1.40;;;0.80;;
6259;SDS011;3163;51.516;4.000;2022-09-29T08:26:41;3.07;;;0.90;;
6259;SDS011;3163;51.516;4.000;2022-09-29T08:29:07;0.90;;;0.90;;
6259;SDS011;3163;51.516;4.000;2022-09-29T08:31:33;1.33;;;0.80;;
6259;SDS011;3163;51.516;4.000;2022-09-29T08:34:01;0.70;;;0.70;;
6259;SDS011;3163;51.516;4.000;2022-09-29T08:36:27;0.40;;;0.40;;
6259;SDS011;3163;51.516;4.000;2022-09-29T08:38:54;1.53;;;0.67;;
6259;SDS011;3163;51.516;4.000;2022-09-29T08:41:29;1.43;;;0.70;;
6259;SDS011;3163;51.516;4.000;2022-09-29T08:46:51;1.70;;;0.50;;
6259;SDS011;3163;51.516;4.000;2022-09-29T08:49:30;0.40;;;0.40;;
6259;SDS011;3163;51.516;4.000;2022-09-29T08:52:00;0.63;;;0.50;;
6259;SDS011;3163;51.516;4.000;2022-09-29T08:54:35;1.40;;;0.63;;
6259;SDS011;3163;51.516;4.000;2022-09-29T08:57:02;1.55;;;0.60;;
6259;SDS011;3163;51.516;4.000;2022-09-29T08:59:29;1.47;;;0.87;;
6259;SDS011;3163;51.516;4.000;2022-09-29T09:01:59;0.60;;;0.50;;
6259;SDS011;3163;51.516;4.000;2022-09-29T09:12:16;0.43;;;0.43;;
6259;SDS011;3163;51.516;4.000;2022-09-29T09:20:21;3.43;;;0.40;;
6259;SDS011;3163;51.516;4.000;2022-09-29T09:22:54;1.13;;;0.40;;
6259;SDS011;3163;51.516;4.000;2022-09-29T09:41:07;1.07;;;0.40;;
6259;SDS011;3163;51.516;4.000;2022-09-29T09:43:35;3.33;;;0.40;;
6259;SDS011;3163;51.516;4.000;2022-09-29T09:46:07;2.33;;;0.53;;
6259;SDS011;3163;51.516;4.000;2022-09-29T09:48:40;0.63;;;0.53;;
6259;SDS011;3163;51.516;4.000;2022-09-29T09:51:15;0.30;;;0.30;;
6259;SDS011;3163;51.516;4.000;2022-09-29T09:53:42;0.70;;;0.50;;
6259;SDS011;3163;51.516;4.000;2022-09-29T10:01:26;0.93;;;0.47;;
6259;SDS011;3163;51.516;4.000;2022-09-29T10:03:54;0.27;;;0.27;;
6259;SDS011;3163;51.516;4.000;2022-09-29T10:06:21;0.30;;;0.30;;
6259;SDS011;3163;51.516;4.000;2022-09-29T10:08:47;0.40;;;0.40;;
6259;SDS011;3163;51.516;4.000;2022-09-29T10:13:43;0.53;;;0.40;;
6259;SDS011;3163;51.516;4.000;2022-09-29T10:16:12;0.60;;;0.40;;
6259;SDS011;3163;51.516;4.000;2022-09-29T10:18:40;2.23;;;0.10;;
6259;SDS011;3163;51.516;4.000;2022-09-29T10:23:56;0.30;;;0.30;;
6259;SDS011;3163;51.516;4.000;2022-09-29T10:26:24;0.97;;;0.53;;
6259;SDS011;3163;51.516;4.000;2022-09-29T10:31:18;1.00;;;0.30;;
6259;SDS011;3163;51.516;4.000;2022-09-29T10:34:20;1.57;;;0.30;;
6259;SDS011;3163;51.516;4.000;2022-09-29T10:36:48;0.70;;;0.20;;
6259;SDS011;3163;51.516;4.000;2022-09-29T10:39:30;0.83;;;0.20;;
6259;SDS011;3163;51.516;4.000;2022-09-29T10:41:57;0.20;;;0.20;;
6259;SDS011;3163;51.516;4.000;2022-09-29T10:44:23;1.53;;;0.40;;
6259;SDS011;3163;51.516;4.000;2022-09-29T10:46:55;0.20;;;0.20;;
6259;SDS011;3163;51.516;4.000;2022-09-29T10:49:22;0.30;;;0.30;;
6259;SDS011;3163;51.516;4.000;2022-09-29T10:52:04;0.37;;;0.30;;
6259;SDS011;3163;51.516;4.000;2022-09-29T10:54:31;0.40;;;0.20;;
6259;SDS011;3163;51.516;4.000;2022-09-29T10:56:59;0.40;;;0.40;;
6259;SDS011;3163;51.516;4.000;2022-09-29T10:59:36;0.20;;;0.20;;
6259;SDS011;3163;51.516;4.000;2022-09-29T11:02:11;0.20;;;0.20;;
6259;SDS011;3163;51.516;4.000;2022-09-29T11:04:43;0.30;;;0.30;;
6259;SDS011;3163;51.516;4.000;2022-09-29T11:07:12;0.83;;;0.20;;
6259;SDS011;3163;51.516;4.000;2022-09-29T11:09:39;0.20;;;0.20;;
6259;SDS011;3163;51.516;4.000;2022-09-29T11:12:10;1.20;;;0.30;;
6259;SDS011;3163;51.516;4.000;2022-09-29T11:14:48;0.83;;;0.40;;
6259;SDS011;3163;51.516;4.000;2022-09-29T11:19:44;0.20;;;0.20;;
6259;SDS011;3163;51.516;4.000;2022-09-29T11:24:43;0.20;;;0.20;;
6259;SDS011;3163;51.516;4.000;2022-09-29T11:27:32;0.20;;;0.20;;
6259;SDS011;3163;51.516;4.000;2022-09-29T11:41:07;0.20;;;0.20;;
6259;SDS011;3163;51.516;4.000;2022-09-29T11:54:02;0.20;;;0.20;;
6259;SDS011;3163;51.516;4.000;2022-09-29T11:57:31;0.20;;;0.20;;
6259;SDS011;3163;51.516;4.000;2022-09-29T12:15:06;0.38;;;0.10;;
6259;SDS011;3163;51.516;4.000;2022-09-29T12:17:38;0.10;;;0.10;;
6259;SDS011;3163;51.516;4.000;2022-09-29T12:20:07;0.27;;;0.27;;
6259;SDS011;3163;51.516;4.000;2022-09-29T12:22:39;0.10;;;0.10;;
6259;SDS011;3163;51.516;4.000;2022-09-29T12:25:09;0.10;;;0.10;;
6259;SDS011;3163;51.516;4.000;2022-09-29T12:27:39;0.67;;;0.30;;
6259;SDS011;3163;51.516;4.000;2022-09-29T12:35:03;0.50;;;0.20;;
6259;SDS011;3163;51.516;4.000;2022-09-29T12:40:38;0.03;;;0.03;;
6259;SDS011;3163;51.516;4.000;2022-09-29T12:43:22;0.17;;;0.17;;
6259;SDS011;3163;51.516;4.000;2022-09-29T12:45:56;0.10;;;0.10;;
6259;SDS011;3163;51.516;4.000;2022-09-29T12:51:27;0.20;;;0.20;;
6259;SDS011;3163;51.516;4.000;2022-09-29T12:56:25;1.30;;;0.20;;
6259;SDS011;3163;51.516;4.000;2022-09-29T12:58:54;0.20;;;0.20;;
6259;SDS011;3163;51.516;4.000;2022-09-29T13:01:29;0.77;;;0.30;;
6259;SDS011;3163;51.516;4.000;2022-09-29T13:06:27;0.10;;;0.10;;
6259;SDS011;3163;51.516;4.000;2022-09-29T13:09:15;0.10;;;0.10;;
6259;SDS011;3163;51.516;4.000;2022-09-29T13:11:48;0.10;;;0.10;;
6259;SDS011;3163;51.516;4.000;2022-09-29T13:19:33;0.20;;;0.20;;
6259;SDS011;3163;51.516;4.000;2022-09-29T13:27:37;0.20;;;0.20;;
6259;SDS011;3163;51.516;4.000;2022-09-29T13:32:30;0.13;;;0.10;;
6259;SDS011;3163;51.516;4.000;2022-09-29T13:34:58;0.10;;;0.10;;
6259;SDS011;3163;51.516;4.000;2022-09-29T13:37:25;0.30;;;0.20;;
6259;SDS011;3163;51.516;4.000;2022-09-29T13:39:59;0.10;;;0.10;;
6259;SDS011;3163;51.516;4.000;2022-09-29T13:42:37;0.10;;;0.10;;
6259;SDS011;3163;51.516;4.000;2022-09-29T13:53:15;0.13;;;0.10;;
6259;SDS011;3163;51.516;4.000;2022-09-29T13:55:48;0.10;;;0.10;;
6259;SDS011;3163;51.516;4.000;2022-09-29T14:00:46;0.60;;;0.10;;
6259;SDS011;3163;51.516;4.000;2022-09-29T14:03:20;0.20;;;0.10;;
6259;SDS011;3163;51.516;4.000;2022-09-29T14:05:52;0.20;;;0.20;;
6259;SDS011;3163;51.516;4.000;2022-09-29T14:08:24;0.17;;;0.17;;
6259;SDS011;3163;51.516;4.000;2022-09-29T14:16:16;0.13;;;0.13;;
6259;SDS011;3163;51.516;4.000;2022-09-29T14:18:44;0.73;;;0.17;;
6259;SDS011;3163;51.516;4.000;2022-09-29T14:21:13;0.57;;;0.10;;
6259;SDS011;3163;51.516;4.000;2022-09-29T14:23:49;0.17;;;0.17;;
6259;SDS011;3163;51.516;4.000;2022-09-29T14:29:00;0.13;;;0.13;;
6259;SDS011;3163;51.516;4.000;2022-09-29T14:31:27;0.20;;;0.20;;
6259;SDS011;3163;51.516;4.000;2022-09-29T14:33:53;0.20;;;0.20;;
6259;SDS011;3163;51.516;4.000;2022-09-29T14:36:20;0.67;;;0.20;;
6259;SDS011;3163;51.516;4.000;2022-09-29T14:38:48;0.47;;;0.20;;
6259;SDS011;3163;51.516;4.000;2022-09-29T14:43:58;0.20;;;0.20;;
6259;SDS011;3163;51.516;4.000;2022-09-29T14:54:47;0.20;;;0.20;;
6259;SDS011;3163;51.516;4.000;2022-09-29T14:58:00;0.20;;;0.20;;
6259;SDS011;3163;51.516;4.000;2022-09-29T15:00:19;0.20;;;0.20;;
6259;SDS011;3163;51.516;4.000;2022-09-29T15:02:48;0.13;;;0.13;;
6259;SDS011;3163;51.516;4.000;2022-09-29T15:05:30;0.20;;;0.20;;
6259;SDS011;3163;51.516;4.000;2022-09-29T15:07:57;0.17;;;0.17;;
6259;SDS011;3163;51.516;4.000;2022-09-29T15:12:50;0.20;;;0.20;;
6259;SDS011;3163;51.516;4.000;2022-09-29T15:18:22;0.10;;;0.10;;
6259;SDS011;3163;51.516;4.000;2022-09-29T15:20:54;0.20;;;0.20;;
6259;SDS011;3163;51.516;4.000;2022-09-29T15:23:43;0.20;;;0.20;;
6259;SDS011;3163;51.516;4.000;2022-09-29T15:26:13;0.20;;;0.20;;
6259;SDS011;3163;51.516;4.000;2022-09-29T15:28:39;0.20;;;0.20;;
6259;SDS011;3163;51.516;4.000;2022-09-29T15:31:08;0.27;;;0.27;;
6259;SDS011;3163;51.516;4.000;2022-09-29T15:33:36;0.20;;;0.20;;
6259;SDS011;3163;51.516;4.000;2022-09-29T15:38:32;0.10;;;0.10;;
6259;SDS011;3163;51.516;4.000;2022-09-29T15:41:02;0.40;;;0.30;;
6259;SDS011;3163;51.516;4.000;2022-09-29T15:43:30;0.10;;;0.10;;
6259;SDS011;3163;51.516;4.000;2022-09-29T15:46:12;0.17;;;0.10;;
6259;SDS011;3163;51.516;4.000;2022-09-29T15:48:38;6.70;;;0.20;;
6259;SDS011;3163;51.516;4.000;2022-09-29T15:51:04;0.10;;;0.10;;
6259;SDS011;3163;51.516;4.000;2022-09-29T15:53:41;1.43;;;0.20;;
6259;SDS011;3163;51.516;4.000;2022-09-29T15:56:09;0.10;;;0.10;;
6259;SDS011;3163;51.516;4.000;2022-09-29T15:58:35;0.17;;;0.17;;
6259;SDS011;3163;51.516;4.000;2022-09-29T16:01:07;0.10;;;0.10;;
6259;SDS011;3163;51.516;4.000;2022-09-29T16:08:37;0.30;;;0.20;;
6259;SDS011;3163;51.516;4.000;2022-09-29T16:11:06;0.20;;;0.13;;
6259;SDS011;3163;51.516;4.000;2022-09-29T16:13:37;0.10;;;0.10;;
6259;SDS011;3163;51.516;4.000;2022-09-29T16:16:10;0.20;;;0.20;;
6259;SDS011;3163;51.516;4.000;2022-09-29T16:18:43;0.50;;;0.10;;
6259;SDS011;3163;51.516;4.000;2022-09-29T16:21:12;0.13;;;0.13;;
6259;SDS011;3163;51.516;4.000;2022-09-29T16:26:09;0.77;;;0.20;;
6259;SDS011;3163;51.516;4.000;2022-09-29T16:28:40;0.20;;;0.13;;
6259;SDS011;3163;51.516;4.000;2022-09-29T16:31:21;0.23;;;0.20;;
6259;SDS011;3163;51.516;4.000;2022-09-29T16:33:52;0.20;;;0.20;;
6259;SDS011;3163;51.516;4.000;2022-09-29T16:36:22;0.00;;;0.00;;
6259;SDS011;3163;51.516;4.000;2022-09-29T16:38:49;0.53;;;0.20;;
6259;SDS011;3163;51.516;4.000;2022-09-29T16:41:29;0.30;;;0.30;;
6259;SDS011;3163;51.516;4.000;2022-09-29T16:44:03;0.63;;;0.20;;
6259;SDS011;3163;51.516;4.000;2022-09-29T16:46:31;0.10;;;0.10;;
6259;SDS011;3163;51.516;4.000;2022-09-29T16:48:58;0.10;;;0.10;;
6259;SDS011;3163;51.516;4.000;2022-09-29T16:51:24;0.10;;;0.10;;
6259;SDS011;3163;51.516;4.000;2022-09-29T16:53:51;0.10;;;0.10;;
6259;SDS011;3163;51.516;4.000;2022-09-29T16:56:27;0.10;;;0.10;;
6259;SDS011;3163;51.516;4.000;2022-09-29T17:01:28;0.30;;;0.25;;
6259;SDS011;3163;51.516;4.000;2022-09-29T17:03:54;0.50;;;0.30;;
6259;SDS011;3163;51.516;4.000;2022-09-29T17:06:20;0.43;;;0.23;;
6259;SDS011;3163;51.516;4.000;2022-09-29T17:08:46;0.43;;;0.20;;
6259;SDS011;3163;51.516;4.000;2022-09-29T17:11:12;1.60;;;0.20;;
6259;SDS011;3163;51.516;4.000;2022-09-29T17:13:37;0.27;;;0.27;;
6259;SDS011;3163;51.516;4.000;2022-09-29T17:16:04;0.20;;;0.20;;
6259;SDS011;3163;51.516;4.000;2022-09-29T17:18:31;0.20;;;0.20;;
6259;SDS011;3163;51.516;4.000;2022-09-29T17:20:57;0.30;;;0.30;;
6259;SDS011;3163;51.516;4.000;2022-09-29T17:23:23;0.20;;;0.20;;
6259;SDS011;3163;51.516;4.000;2022-09-29T17:25:49;0.10;;;0.10;;
6259;SDS011;3163;51.516;4.000;2022-09-29T17:28:17;0.30;;;0.30;;
6259;SDS011;3163;51.516;4.000;2022-09-29T17:30:45;0.23;;;0.20;;
6259;SDS011;3163;51.516;4.000;2022-09-29T17:33:12;0.30;;;0.30;;
6259;SDS011;3163;51.516;4.000;2022-09-29T17:35:40;0.40;;;0.40;;
6259;SDS011;3163;51.516;4.000;2022-09-29T17:38:07;0.53;;;0.30;;
6259;SDS011;3163;51.516;4.000;2022-09-29T17:40:42;0.30;;;0.30;;
6259;SDS011;3163;51.516;4.000;2022-09-29T17:43:10;1.70;;;0.40;;
6259;SDS011;3163;51.516;4.000;2022-09-29T17:45:36;0.30;;;0.30;;
6259;SDS011;3163;51.516;4.000;2022-09-29T17:48:06;0.40;;;0.40;;
6259;SDS011;3163;51.516;4.000;2022-09-29T17:50:52;0.67;;;0.40;;
6259;SDS011;3163;51.516;4.000;2022-09-29T17:53:20;0.50;;;0.30;;
6259;SDS011;3163;51.516;4.000;2022-09-29T17:55:48;0.27;;;0.27;;
6259;SDS011;3163;51.516;4.000;2022-09-29T17:58:15;0.93;;;0.37;;
6259;SDS011;3163;51.516;4.000;2022-09-29T18:00:42;0.30;;;0.30;;
6259;SDS011;3163;51.516;4.000;2022-09-29T18:03:12;0.60;;;0.23;;
6259;SDS011;3163;51.516;4.000;2022-09-29T18:05:38;0.40;;;0.40;;
6259;SDS011;3163;51.516;4.000;2022-09-29T18:08:06;0.30;;;0.30;;
6259;SDS011;3163;51.516;4.000;2022-09-29T18:13:04;0.70;;;0.50;;
6259;SDS011;3163;51.516;4.000;2022-09-29T18:15:31;1.40;;;0.50;;
6259;SDS011;3163;51.516;4.000;2022-09-29T18:17:58;0.30;;;0.30;;
6259;SDS011;3163;51.516;4.000;2022-09-29T18:20:26;0.83;;;0.30;;
6259;SDS011;3163;51.516;4.000;2022-09-29T18:22:53;0.30;;;0.30;;
6259;SDS011;3163;51.516;4.000;2022-09-29T18:25:23;1.50;;;0.37;;
6259;SDS011;3163;51.516;4.000;2022-09-29T18:27:50;0.70;;;0.33;;
6259;SDS011;3163;51.516;4.000;2022-09-29T18:30:17;0.33;;;0.33;;
6259;SDS011;3163;51.516;4.000;2022-09-29T18:32:48;0.30;;;0.27;;
6259;SDS011;3163;51.516;4.000;2022-09-29T18:35:16;1.23;;;0.50;;
6259;SDS011;3163;51.516;4.000;2022-09-29T18:37:42;0.27;;;0.27;;